Time;durP1;ratioP1;P1;durP2;ratioP2;P2;SDS_P1;SDS_P2;PMS_P1;PMS_P2;Temp;Humidity;BMP_temperature;BMP_pressure;BME280_temperature;BME280_humidity;BME280_pressure;Samples;Min_cycle;Max_cycle;Signal;HPM_P1;HPM_P2
2024/03/18 00:00:52;;;;;;;60.30;28.60;;;;;;;;;;4328535;32;319300;-70
2024/03/18 00:03:20;;;;;;;58.13;30.13;;;;;;;;;;4336915;32;318851;-70
2024/03/18 00:05:48;;;;;;;68.77;32.50;;;;;;;;;;4336848;32;321835;-71
2024/03/18 00:08:15;;;;;;;55.23;29.87;;;;;;;;;;4326027;32;319580;-70
2024/03/18 00:10:42;;;;;;;55.07;28.70;;;;;;;;;;4337358;32;318719;-71
2024/03/18 00:13:08;;;;;;;62.70;33.13;;;;;;;;;;4325662;32;356133;-70
2024/03/18 00:15:35;;;;;;;56.67;29.43;;;;;;;;;;4338037;32;319561;-70
2024/03/18 00:18:03;;;;;;;60.07;29.67;;;;;;;;;;4328291;32;319331;-70
2024/03/18 00:20:29;;;;;;;51.00;30.83;;;;;;;;;;4337232;32;341393;-71
2024/03/18 00:22:58;;;;;;;51.63;29.80;;;;;;;;;;4328210;32;319549;-70
2024/03/18 00:25:25;;;;;;;48.20;27.93;;;;;;;;;;4336853;32;318824;-71
2024/03/18 00:27:54;;;;;;;37.80;23.23;;;;;;;;;;4328486;32;319662;-71
2024/03/18 00:30:20;;;;;;;45.47;23.40;;;;;;;;;;4335204;32;319428;-71
2024/03/18 00:32:47;;;;;;;35.43;21.73;;;;;;;;;;4338283;32;319443;-70
2024/03/18 00:35:15;;;;;;;34.87;22.83;;;;;;;;;;4326284;32;319488;-70
2024/03/18 00:37:41;;;;;;;35.50;22.23;;;;;;;;;;4336697;32;319328;-70
2024/03/18 00:40:11;;;;;;;43.20;25.97;;;;;;;;;;4325141;32;346309;-71
2024/03/18 00:42:37;;;;;;;47.17;25.80;;;;;;;;;;4336831;32;318647;-70
2024/03/18 00:45:05;;;;;;;46.90;24.00;;;;;;;;;;4326489;32;319259;-70
2024/03/18 00:47:31;;;;;;;42.83;22.93;;;;;;;;;;4336889;32;319628;-71
2024/03/18 00:50:02;;;;;;;41.73;22.67;;;;;;;;;;4326874;32;319395;-70
2024/03/18 00:52:32;;;;;;;26.57;16.07;;;;;;;;;;4335153;32;318937;-71
2024/03/18 00:54:59;;;;;;;29.57;15.00;;;;;;;;;;4327849;32;319529;-70
2024/03/18 00:57:27;;;;;;;30.53;17.10;;;;;;;;;;4337023;32;319602;-71
2024/03/18 00:59:53;;;;;;;30.67;17.63;;;;;;;;;;4327803;32;319376;-70
2024/03/18 01:02:20;;;;;;;31.80;17.47;;;;;;;;;;4335229;32;319555;-72
2024/03/18 01:04:48;;;;;;;32.73;17.53;;;;;;;;;;4336906;32;319537;-70
2024/03/18 01:07:14;;;;;;;28.97;17.83;;;;;;;;;;4327842;32;320012;-71
2024/03/18 01:09:43;;;;;;;26.57;15.37;;;;;;;;;;4337223;32;319184;-70
2024/03/18 01:12:10;;;;;;;30.67;17.43;;;;;;;;;;4324235;32;319500;-70
2024/03/18 01:14:38;;;;;;;33.50;19.60;;;;;;;;;;4337055;32;319478;-70
2024/03/18 01:17:05;;;;;;;39.30;19.63;;;;;;;;;;4326300;32;360111;-70
2024/03/18 01:19:31;;;;;;;40.67;20.93;;;;;;;;;;4335659;32;319508;-70
2024/03/18 01:21:58;;;;;;;35.80;18.87;;;;;;;;;;4327717;32;319497;-72
2024/03/18 01:24:25;;;;;;;39.43;20.07;;;;;;;;;;4334892;32;319550;-70
2024/03/18 01:26:52;;;;;;;37.70;22.90;;;;;;;;;;4333794;32;319414;-70
2024/03/18 01:29:21;;;;;;;47.30;24.90;;;;;;;;;;4337414;32;318706;-70
2024/03/18 01:31:49;;;;;;;31.17;19.13;;;;;;;;;;4337158;32;318426;-70
2024/03/18 01:34:16;;;;;;;42.23;22.70;;;;;;;;;;4324465;32;317953;-71
2024/03/18 01:36:43;;;;;;;45.33;24.00;;;;;;;;;;4336389;32;318608;-71
2024/03/18 01:39:10;;;;;;;30.57;18.40;;;;;;;;;;4327382;32;318671;-70
2024/03/18 01:41:37;;;;;;;37.53;18.20;;;;;;;;;;4335114;32;318439;-71
2024/03/18 01:44:04;;;;;;;31.30;19.07;;;;;;;;;;4326114;32;319065;-71
2024/03/18 01:46:31;;;;;;;38.70;18.73;;;;;;;;;;4337231;32;318565;-70
2024/03/18 01:48:59;;;;;;;34.13;19.13;;;;;;;;;;4336115;32;318571;-70
2024/03/18 01:51:26;;;;;;;52.20;22.00;;;;;;;;;;4319779;32;318687;-73
2024/03/18 01:53:52;;;;;;;48.10;21.87;;;;;;;;;;4337012;32;318381;-71
2024/03/18 01:56:19;;;;;;;58.47;30.93;;;;;;;;;;4327221;32;318293;-70
2024/03/18 01:58:49;;;;;;;50.10;25.70;;;;;;;;;;4335586;32;318348;-70
2024/03/18 02:01:16;;;;;;;45.87;27.37;;;;;;;;;;4325349;32;318464;-70
2024/03/18 02:03:43;;;;;;;33.67;21.17;;;;;;;;;;4337268;32;318616;-70
2024/03/18 02:06:11;;;;;;;37.13;20.53;;;;;;;;;;4327072;32;318279;-69
2024/03/18 02:08:37;;;;;;;35.90;21.03;;;;;;;;;;4338664;32;318307;-71
2024/03/18 02:11:05;;;;;;;36.70;19.63;;;;;;;;;;4330028;32;318516;-70
2024/03/18 02:13:32;;;;;;;36.57;22.47;;;;;;;;;;4336440;32;322945;-70
2024/03/18 02:15:59;;;;;;;38.73;24.13;;;;;;;;;;4338174;32;349475;-71
2024/03/18 02:18:25;;;;;;;40.77;21.37;;;;;;;;;;4329941;32;318395;-70
2024/03/18 02:20:51;;;;;;;43.87;22.17;;;;;;;;;;4339239;32;318713;-70
2024/03/18 02:23:20;;;;;;;38.70;23.50;;;;;;;;;;4327368;32;318356;-69
2024/03/18 02:25:47;;;;;;;52.13;24.63;;;;;;;;;;4338481;32;318316;-72
2024/03/18 02:28:14;;;;;;;44.23;24.33;;;;;;;;;;4328738;32;347059;-70
2024/03/18 02:30:40;;;;;;;41.63;23.90;;;;;;;;;;4339440;32;318301;-70
2024/03/18 02:33:07;;;;;;;41.90;22.77;;;;;;;;;;4329142;32;318422;-70
2024/03/18 02:35:34;;;;;;;34.43;22.03;;;;;;;;;;4335532;32;317709;-70
2024/03/18 02:38:01;;;;;;;35.10;21.57;;;;;;;;;;4339573;32;319040;-71
2024/03/18 02:40:29;;;;;;;32.07;19.30;;;;;;;;;;4329861;32;318412;-70
2024/03/18 02:42:55;;;;;;;35.87;17.77;;;;;;;;;;4339194;32;318321;-71
2024/03/18 02:45:22;;;;;;;28.10;17.17;;;;;;;;;;4326015;32;318311;-71
2024/03/18 02:47:49;;;;;;;31.27;16.63;;;;;;;;;;4338164;32;317599;-72
2024/03/18 02:50:18;;;;;;;34.23;16.93;;;;;;;;;;4327998;32;322895;-73
2024/03/18 02:52:45;;;;;;;29.97;17.33;;;;;;;;;;4338582;32;318470;-71
2024/03/18 02:55:12;;;;;;;30.27;17.37;;;;;;;;;;4328114;32;318246;-70
2024/03/18 02:57:40;;;;;;;51.40;27.20;;;;;;;;;;4335659;32;318140;-71
2024/03/18 03:00:10;;;;;;;56.30;31.13;;;;;;;;;;4328097;32;318332;-70
2024/03/18 03:02:37;;;;;;;46.57;28.87;;;;;;;;;;4338132;32;318265;-70
2024/03/18 03:05:04;;;;;;;34.03;22.57;;;;;;;;;;4328815;32;318461;-70
2024/03/18 03:07:30;;;;;;;34.07;25.07;;;;;;;;;;4336574;32;317429;-71
2024/03/18 03:09:57;;;;;;;35.20;20.57;;;;;;;;;;4338025;32;318372;-70
2024/03/18 03:12:26;;;;;;;35.70;19.90;;;;;;;;;;4326897;32;318347;-71
2024/03/18 03:14:54;;;;;;;31.67;22.13;;;;;;;;;;4329426;32;317754;-70
2024/03/18 03:17:23;;;;;;;23.30;15.53;;;;;;;;;;4326067;32;318445;-70
2024/03/18 03:19:50;;;;;;;24.03;15.77;;;;;;;;;;4338215;32;318653;-71
2024/03/18 03:22:17;;;;;;;26.10;15.80;;;;;;;;;;4327601;32;323144;-71
2024/03/18 03:24:44;;;;;;;22.60;15.87;;;;;;;;;;4338489;32;318231;-70
2024/03/18 03:27:10;;;;;;;21.77;14.47;;;;;;;;;;4328650;32;318349;-70
2024/03/18 03:29:37;;;;;;;22.27;14.63;;;;;;;;;;4336324;32;318395;-71
2024/03/18 03:32:06;;;;;;;23.77;13.73;;;;;;;;;;4327578;32;318358;-70
2024/03/18 03:34:32;;;;;;;21.77;14.73;;;;;;;;;;4338085;32;318200;-70
2024/03/18 03:37:00;;;;;;;20.30;14.07;;;;;;;;;;4339205;32;318260;-70
2024/03/18 03:39:27;;;;;;;28.37;15.43;;;;;;;;;;4326730;32;318410;-69
2024/03/18 03:41:54;;;;;;;27.13;15.90;;;;;;;;;;4338261;32;318380;-70
2024/03/18 03:44:21;;;;;;;25.50;15.87;;;;;;;;;;4320871;32;318208;-70
2024/03/18 03:46:50;;;;;;;26.87;15.23;;;;;;;;;;4339048;32;318369;-70
2024/03/18 03:49:18;;;;;;;23.17;14.30;;;;;;;;;;4325450;32;318331;-70
2024/03/18 03:51:45;;;;;;;27.47;16.50;;;;;;;;;;4337471;32;318162;-70
2024/03/18 03:54:13;;;;;;;24.37;16.70;;;;;;;;;;4326444;32;348719;-71
2024/03/18 03:56:40;;;;;;;27.63;16.27;;;;;;;;;;4338037;32;317550;-70
2024/03/18 03:59:06;;;;;;;38.40;19.17;;;;;;;;;;4320182;32;318346;-70
2024/03/18 04:01:33;;;;;;;35.23;18.20;;;;;;;;;;4335407;32;318095;-70
2024/03/18 04:04:00;;;;;;;33.03;21.17;;;;;;;;;;4336641;32;317465;-71
2024/03/18 04:06:28;;;;;;;40.63;23.00;;;;;;;;;;4328390;32;319017;-70
2024/03/18 04:08:54;;;;;;;34.47;24.30;;;;;;;;;;4336091;32;351042;-70
2024/03/18 04:11:21;;;;;;;38.23;24.57;;;;;;;;;;4324659;32;322205;-70
2024/03/18 04:13:47;;;;;;;40.40;25.83;;;;;;;;;;4337688;32;318293;-72
2024/03/18 04:16:16;;;;;;;41.87;24.30;;;;;;;;;;4326930;32;317489;-71
2024/03/18 04:18:43;;;;;;;34.13;22.60;;;;;;;;;;4336737;32;318210;-70
2024/03/18 04:21:10;;;;;;;33.73;16.97;;;;;;;;;;4326943;32;318473;-70
2024/03/18 04:23:37;;;;;;;21.50;15.13;;;;;;;;;;4336080;32;318267;-71
2024/03/18 04:26:06;;;;;;;26.10;14.03;;;;;;;;;;4325103;32;318416;-71
2024/03/18 04:28:33;;;;;;;27.13;15.50;;;;;;;;;;4338130;32;318431;-70
2024/03/18 04:31:05;;;;;;;30.53;18.00;;;;;;;;;;4336554;32;318465;-73
2024/03/18 04:33:32;;;;;;;37.10;21.50;;;;;;;;;;4322544;32;418865;-70
2024/03/18 04:35:58;;;;;;;55.40;26.33;;;;;;;;;;4337939;32;318292;-72
2024/03/18 04:38:26;;;;;;;101.83;44.37;;;;;;;;;;4327190;32;318854;-71
2024/03/18 04:40:54;;;;;;;193.43;83.67;;;;;;;;;;4337246;32;319448;-71
2024/03/18 04:43:21;;;;;;;205.53;92.93;;;;;;;;;;4325453;32;319405;-70
2024/03/18 04:45:48;;;;;;;234.30;103.50;;;;;;;;;;4337304;32;319153;-70
2024/03/18 04:48:14;;;;;;;232.47;105.27;;;;;;;;;;4326283;32;320464;-70
2024/03/18 04:50:41;;;;;;;172.50;91.10;;;;;;;;;;4336484;32;320343;-70
2024/03/18 04:53:08;;;;;;;178.47;81.70;;;;;;;;;;4327780;32;319246;-70
2024/03/18 04:55:34;;;;;;;135.23;72.20;;;;;;;;;;4333822;32;319382;-71
2024/03/18 04:58:03;;;;;;;135.13;69.53;;;;;;;;;;4323429;32;319410;-70
2024/03/18 05:00:29;;;;;;;136.60;70.47;;;;;;;;;;4323933;32;420133;-70
2024/03/18 05:02:56;;;;;;;142.40;71.03;;;;;;;;;;4336220;32;319334;-70
2024/03/18 05:05:23;;;;;;;137.40;68.67;;;;;;;;;;4325133;32;318773;-71
2024/03/18 05:07:50;;;;;;;126.57;68.07;;;;;;;;;;4337773;32;319158;-71
2024/03/18 05:10:21;;;;;;;116.07;60.10;;;;;;;;;;4325643;32;319323;-69
2024/03/18 05:12:48;;;;;;;90.77;49.40;;;;;;;;;;4337782;32;319878;-70
2024/03/18 05:15:16;;;;;;;90.27;44.80;;;;;;;;;;4327238;32;318177;-70
2024/03/18 05:17:43;;;;;;;86.57;44.50;;;;;;;;;;4337394;32;318297;-69
2024/03/18 05:20:12;;;;;;;96.50;48.00;;;;;;;;;;4326322;32;318258;-70
2024/03/18 05:22:39;;;;;;;90.37;48.47;;;;;;;;;;4337560;32;318783;-70
2024/03/18 05:25:09;;;;;;;93.87;51.97;;;;;;;;;;4318214;32;318073;-73
2024/03/18 05:27:37;;;;;;;118.37;58.23;;;;;;;;;;4334394;32;318168;-70
2024/03/18 05:30:05;;;;;;;95.10;45.80;;;;;;;;;;4330045;32;319174;-70
2024/03/18 05:32:33;;;;;;;74.30;41.60;;;;;;;;;;4335868;32;318198;-70
2024/03/18 05:35:00;;;;;;;70.17;40.53;;;;;;;;;;4336921;32;318551;-70
2024/03/18 05:37:28;;;;;;;84.73;42.53;;;;;;;;;;4323537;32;318176;-72
2024/03/18 05:39:55;;;;;;;62.20;37.83;;;;;;;;;;4337288;32;318868;-70
2024/03/18 05:42:22;;;;;;;83.00;41.93;;;;;;;;;;4327247;32;317476;-70
2024/03/18 05:44:49;;;;;;;54.80;33.03;;;;;;;;;;4339681;32;318213;-71
2024/03/18 05:47:16;;;;;;;41.17;25.10;;;;;;;;;;4327399;32;318280;-72
2024/03/18 05:49:44;;;;;;;40.83;23.10;;;;;;;;;;4339301;32;318542;-73
2024/03/18 05:52:11;;;;;;;38.97;23.30;;;;;;;;;;4330263;32;318374;-70
2024/03/18 05:54:38;;;;;;;37.17;20.87;;;;;;;;;;4339307;32;318450;-71
2024/03/18 05:57:05;;;;;;;37.50;23.67;;;;;;;;;;4329069;32;318485;-72
2024/03/18 05:59:31;;;;;;;35.97;23.13;;;;;;;;;;4336221;32;317721;-71
2024/03/18 06:01:58;;;;;;;36.90;21.77;;;;;;;;;;4338317;32;318248;-71
2024/03/18 06:04:25;;;;;;;40.37;21.87;;;;;;;;;;4329796;32;319803;-71
2024/03/18 06:06:53;;;;;;;46.77;26.53;;;;;;;;;;4339315;32;318396;-71
2024/03/18 06:09:20;;;;;;;62.20;30.47;;;;;;;;;;4325670;32;318247;-70
2024/03/18 06:11:47;;;;;;;35.53;19.97;;;;;;;;;;4339241;32;317912;-69
2024/03/18 06:14:14;;;;;;;35.17;22.20;;;;;;;;;;4329757;32;317679;-72
2024/03/18 06:16:41;;;;;;;30.23;19.40;;;;;;;;;;4339374;32;318093;-71
2024/03/18 06:19:09;;;;;;;30.80;17.77;;;;;;;;;;4328248;32;318235;-71
2024/03/18 06:21:42;;;;;;;23.00;12.73;;;;;;;;;;4336641;32;318317;-72
2024/03/18 06:24:19;;;;;;;22.30;12.77;;;;;;;;;;4328369;32;318295;-73
2024/03/18 06:26:45;;;;;;;22.23;12.73;;;;;;;;;;4339326;32;318204;-70
2024/03/18 06:29:11;;;;;;;18.23;10.80;;;;;;;;;;4329108;32;317624;-70
2024/03/18 06:31:38;;;;;;;16.07;9.97;;;;;;;;;;4337513;32;318324;-71
2024/03/18 06:34:07;;;;;;;15.73;9.73;;;;;;;;;;4328317;32;317277;-71
2024/03/18 06:36:34;;;;;;;18.87;12.23;;;;;;;;;;4339012;32;317387;-72
2024/03/18 06:39:01;;;;;;;21.60;12.43;;;;;;;;;;4338739;32;317752;-73
2024/03/18 06:41:30;;;;;;;24.40;16.43;;;;;;;;;;4323015;32;420029;-72
2024/03/18 06:43:57;;;;;;;23.53;13.33;;;;;;;;;;4338934;32;317507;-73
2024/03/18 06:46:24;;;;;;;19.77;13.97;;;;;;;;;;4329611;32;318408;-71
2024/03/18 06:48:50;;;;;;;21.90;14.53;;;;;;;;;;4337785;32;318345;-72
2024/03/18 06:51:17;;;;;;;28.00;15.13;;;;;;;;;;4325365;32;339252;-71
2024/03/18 06:53:44;;;;;;;22.97;16.23;;;;;;;;;;4339099;32;318428;-73
2024/03/18 06:56:11;;;;;;;24.57;16.30;;;;;;;;;;4329430;32;318260;-74
2024/03/18 06:58:39;;;;;;;20.53;15.07;;;;;;;;;;4338473;32;317470;-71
2024/03/18 07:01:08;;;;;;;23.17;15.87;;;;;;;;;;4326348;32;345454;-70
2024/03/18 07:03:37;;;;;;;25.07;14.93;;;;;;;;;;4336134;32;318261;-70
2024/03/18 07:06:04;;;;;;;36.13;17.47;;;;;;;;;;4328549;32;318372;-70
2024/03/18 07:08:31;;;;;;;25.10;18.77;;;;;;;;;;4337468;32;318550;-71
2024/03/18 07:10:58;;;;;;;28.17;17.67;;;;;;;;;;4338505;32;318433;-71
2024/03/18 07:13:25;;;;;;;30.30;19.10;;;;;;;;;;4326104;32;317954;-72
2024/03/18 07:15:54;;;;;;;32.30;16.27;;;;;;;;;;4338511;32;317439;-71
2024/03/18 07:18:21;;;;;;;23.60;15.67;;;;;;;;;;4326966;32;356912;-72
2024/03/18 07:20:48;;;;;;;24.27;14.77;;;;;;;;;;4338446;32;318433;-71
2024/03/18 07:23:16;;;;;;;21.23;13.27;;;;;;;;;;4325732;32;319152;-70
2024/03/18 07:25:43;;;;;;;25.33;13.63;;;;;;;;;;4338543;32;319389;-72
2024/03/18 07:28:10;;;;;;;24.20;14.33;;;;;;;;;;4328797;32;319487;-72
2024/03/18 07:30:37;;;;;;;18.60;13.40;;;;;;;;;;4338037;32;319247;-71
2024/03/18 07:33:06;;;;;;;16.00;10.47;;;;;;;;;;4328559;32;319295;-70
2024/03/18 07:35:32;;;;;;;22.00;11.53;;;;;;;;;;4334473;32;318651;-72
2024/03/18 07:37:58;;;;;;;25.97;10.53;;;;;;;;;;4337423;32;318611;-74
2024/03/18 07:40:25;;;;;;;18.70;9.90;;;;;;;;;;4325957;32;329405;-73
2024/03/18 07:42:52;;;;;;;24.70;11.30;;;;;;;;;;4337985;32;318487;-73
2024/03/18 07:45:20;;;;;;;20.63;10.27;;;;;;;;;;4325987;32;319552;-71
2024/03/18 07:47:46;;;;;;;19.17;12.17;;;;;;;;;;4336961;32;319219;-71
2024/03/18 07:50:14;;;;;;;12.03;9.60;;;;;;;;;;4328040;32;319536;-72
2024/03/18 07:52:41;;;;;;;12.57;9.87;;;;;;;;;;4337786;32;317723;-72
2024/03/18 07:55:08;;;;;;;15.23;10.63;;;;;;;;;;4328045;32;318669;-71
2024/03/18 07:57:35;;;;;;;14.43;9.33;;;;;;;;;;4334255;32;319223;-70
2024/03/18 08:00:05;;;;;;;13.97;8.97;;;;;;;;;;4337514;32;318314;-71
2024/03/18 08:02:31;;;;;;;18.67;7.97;;;;;;;;;;4325002;32;417916;-71
2024/03/18 08:04:58;;;;;;;18.67;9.27;;;;;;;;;;4335168;32;335450;-73
2024/03/18 08:07:27;;;;;;;15.60;9.43;;;;;;;;;;4325495;32;318947;-73
2024/03/18 08:09:55;;;;;;;14.60;9.17;;;;;;;;;;4336518;32;318484;-73
2024/03/18 08:12:22;;;;;;;18.77;7.87;;;;;;;;;;4326288;32;327343;-72
2024/03/18 08:14:49;;;;;;;12.97;8.80;;;;;;;;;;4337586;32;318424;-73
2024/03/18 08:17:16;;;;;;;12.63;8.00;;;;;;;;;;4326034;32;318400;-70
2024/03/18 08:19:42;;;;;;;13.03;7.03;;;;;;;;;;4336110;32;318340;-71
2024/03/18 08:22:13;;;;;;;12.90;7.83;;;;;;;;;;4327254;32;329185;-73
2024/03/18 08:24:42;;;;;;;9.37;6.53;;;;;;;;;;4336936;32;317631;-73
2024/03/18 08:27:09;;;;;;;12.17;7.00;;;;;;;;;;4326541;32;317002;-72
2024/03/18 08:29:36;;;;;;;11.60;7.03;;;;;;;;;;4335201;32;318312;-73
2024/03/18 08:32:03;;;;;;;12.73;7.13;;;;;;;;;;4336906;32;318568;-72
2024/03/18 08:34:30;;;;;;;9.70;5.90;;;;;;;;;;4324424;32;417690;-72
2024/03/18 08:36:57;;;;;;;9.97;7.17;;;;;;;;;;4337769;32;317220;-72
2024/03/18 08:39:26;;;;;;;15.80;5.97;;;;;;;;;;4324092;32;318279;-70
2024/03/18 08:41:55;;;;;;;8.67;5.50;;;;;;;;;;4335757;32;343360;-71
2024/03/18 08:44:22;;;;;;;7.93;5.37;;;;;;;;;;4326130;32;317326;-71
2024/03/18 08:46:49;;;;;;;15.20;5.67;;;;;;;;;;4336084;32;321703;-72
2024/03/18 08:49:19;;;;;;;11.13;5.83;;;;;;;;;;4324194;32;318450;-69
2024/03/18 08:51:46;;;;;;;8.73;6.80;;;;;;;;;;4337223;32;317641;-73
2024/03/18 08:54:14;;;;;;;7.53;5.23;;;;;;;;;;4327064;32;316694;-70
2024/03/18 08:56:41;;;;;;;8.43;5.17;;;;;;;;;;4336355;32;317647;-72
2024/03/18 08:59:10;;;;;;;16.23;5.37;;;;;;;;;;4326179;32;316715;-71
2024/03/18 09:01:37;;;;;;;6.43;4.70;;;;;;;;;;4333975;32;318237;-71
2024/03/18 09:04:05;;;;;;;6.10;4.73;;;;;;;;;;4335777;32;319726;-74
2024/03/18 09:06:35;;;;;;;8.83;4.83;;;;;;;;;;4324683;32;416128;-71
2024/03/18 09:09:02;;;;;;;6.20;4.03;;;;;;;;;;4335236;32;317558;-72
2024/03/18 09:11:29;;;;;;;6.30;4.87;;;;;;;;;;4322369;32;416370;-72
2024/03/18 09:13:56;;;;;;;6.10;4.60;;;;;;;;;;4336273;32;317296;-72
2024/03/18 09:16:24;;;;;;;8.40;4.70;;;;;;;;;;4325795;32;325637;-72
2024/03/18 09:18:50;;;;;;;12.70;4.60;;;;;;;;;;4334846;32;317386;-71
2024/03/18 09:21:17;;;;;;;8.23;4.73;;;;;;;;;;4323696;32;318486;-71
2024/03/18 09:23:45;;;;;;;10.50;4.33;;;;;;;;;;4336913;32;317460;-72
2024/03/18 09:26:12;;;;;;;8.43;4.57;;;;;;;;;;4326979;32;318393;-71
2024/03/18 09:28:39;;;;;;;9.20;3.77;;;;;;;;;;4335786;32;317502;-72
2024/03/18 09:31:07;;;;;;;10.20;6.73;;;;;;;;;;4326898;32;317862;-73
2024/03/18 09:33:35;;;;;;;8.07;4.50;;;;;;;;;;4333451;32;318304;-72
2024/03/18 09:36:01;;;;;;;8.13;3.70;;;;;;;;;;4335906;32;316565;-72
2024/03/18 09:38:29;;;;;;;8.27;4.13;;;;;;;;;;4326542;32;317629;-72
2024/03/18 09:41:05;;;;;;;9.60;5.13;;;;;;;;;;4337083;32;317420;-71
2024/03/18 09:43:33;;;;;;;8.47;5.20;;;;;;;;;;4320927;32;416483;-72
2024/03/18 09:46:00;;;;;;;4.73;3.17;;;;;;;;;;4336558;32;317423;-71
2024/03/18 09:48:29;;;;;;;12.13;3.83;;;;;;;;;;4326845;32;317603;-74
2024/03/18 09:50:58;;;;;;;10.23;3.37;;;;;;;;;;4335574;32;317641;-70
2024/03/18 09:53:24;;;;;;;4.20;2.43;;;;;;;;;;4322669;32;355879;-72
2024/03/18 09:55:52;;;;;;;6.60;2.40;;;;;;;;;;4336488;32;317226;-71
2024/03/18 09:58:19;;;;;;;2.97;2.10;;;;;;;;;;4326761;32;317157;-71
2024/03/18 10:00:46;;;;;;;7.60;3.90;;;;;;;;;;4335697;32;317688;-71
2024/03/18 10:03:17;;;;;;;5.97;3.27;;;;;;;;;;4327116;32;317872;-72
2024/03/18 10:05:45;;;;;;;5.37;2.10;;;;;;;;;;4336406;32;317819;-70
2024/03/18 10:08:15;;;;;;;4.53;2.22;;;;;;;;;;4326182;32;317538;-72
2024/03/18 10:10:44;;;;;;;4.03;2.70;;;;;;;;;;4336840;32;317210;-71
2024/03/18 10:13:12;;;;;;;3.40;2.10;;;;;;;;;;4325725;32;317342;-72
2024/03/18 10:15:39;;;;;;;2.53;1.87;;;;;;;;;;4334296;32;334866;-71
2024/03/18 10:18:12;;;;;;;4.40;1.87;;;;;;;;;;4326084;32;317480;-72
2024/03/18 10:20:38;;;;;;;3.60;2.53;;;;;;;;;;4334908;32;344009;-72
2024/03/18 10:23:10;;;;;;;4.55;2.33;;;;;;;;;;4326722;32;316917;-71
2024/03/18 10:25:38;;;;;;;4.73;2.40;;;;;;;;;;4334078;32;316653;-71
2024/03/18 10:28:06;;;;;;;3.07;2.00;;;;;;;;;;4327046;32;317711;-71
2024/03/18 10:30:34;;;;;;;2.90;2.10;;;;;;;;;;4337694;32;316818;-72
2024/03/18 10:33:04;;;;;;;3.90;2.20;;;;;;;;;;4339291;32;316636;-74
2024/03/18 10:35:34;;;;;;;9.23;2.28;;;;;;;;;;4323612;32;417154;-71
2024/03/18 10:38:02;;;;;;;7.57;1.83;;;;;;;;;;4337679;32;317333;-72
2024/03/18 10:40:34;;;;;;;7.30;2.87;;;;;;;;;;4326707;32;416486;-73
2024/03/18 10:43:03;;;;;;;4.10;2.35;;;;;;;;;;4338135;32;317628;-73
2024/03/18 10:45:31;;;;;;;14.90;3.47;;;;;;;;;;4323475;32;416291;-72
2024/03/18 10:48:01;;;;;;;4.55;2.33;;;;;;;;;;4339067;32;318931;-76
2024/03/18 10:50:29;;;;;;;6.15;1.58;;;;;;;;;;4328942;32;317233;-73
2024/03/18 10:52:56;;;;;;;3.25;1.90;;;;;;;;;;4338065;32;317534;-73
2024/03/18 10:55:24;;;;;;;3.12;2.08;;;;;;;;;;4326925;32;317318;-74
2024/03/18 10:57:52;;;;;;;4.82;2.15;;;;;;;;;;4338008;32;317317;-71
2024/03/18 11:00:22;;;;;;;2.72;1.90;;;;;;;;;;4329178;32;317531;-71
2024/03/18 11:02:55;;;;;;;3.35;1.80;;;;;;;;;;4338459;32;317227;-73
2024/03/18 11:05:23;;;;;;;2.67;1.87;;;;;;;;;;4327002;32;317555;-70
2024/03/18 11:07:49;;;;;;;4.62;1.98;;;;;;;;;;4338502;32;317315;-72
2024/03/18 11:10:17;;;;;;;3.45;2.00;;;;;;;;;;4329111;32;317335;-72
2024/03/18 11:12:44;;;;;;;3.97;1.80;;;;;;;;;;4336605;32;316712;-73
2024/03/18 11:15:11;;;;;;;3.77;1.90;;;;;;;;;;4326682;32;317367;-71
2024/03/18 11:17:43;;;;;;;2.33;1.83;;;;;;;;;;4335613;32;316970;-72
2024/03/18 11:20:14;;;;;;;9.07;3.83;;;;;;;;;;4328492;32;317301;-72
2024/03/18 11:22:56;;;;;;;3.25;2.03;;;;;;;;;;4338161;32;317447;-71
2024/03/18 11:25:26;;;;;;;3.28;1.60;;;;;;;;;;4324534;32;317746;-71
2024/03/18 11:27:54;;;;;;;4.55;2.08;;;;;;;;;;4337056;32;320959;-72
2024/03/18 11:30:26;;;;;;;3.10;1.58;;;;;;;;;;4327289;32;317408;-73
2024/03/18 11:32:56;;;;;;;6.85;3.45;;;;;;;;;;4336271;32;317451;-72
2024/03/18 11:35:23;;;;;;;3.47;2.22;;;;;;;;;;4325165;32;317274;-71
2024/03/18 11:37:50;;;;;;;5.70;3.12;;;;;;;;;;4338240;32;317371;-72
2024/03/18 11:40:19;;;;;;;3.65;1.92;;;;;;;;;;4327848;32;317707;-75
2024/03/18 11:42:46;;;;;;;5.53;1.90;;;;;;;;;;4337532;32;343826;-72
2024/03/18 11:45:17;;;;;;;5.57;2.12;;;;;;;;;;4327395;32;317439;-71
2024/03/18 11:47:44;;;;;;;2.75;1.73;;;;;;;;;;4335859;32;354978;-71
2024/03/18 11:50:12;;;;;;;2.80;1.73;;;;;;;;;;4328253;32;317395;-71
2024/03/18 11:52:41;;;;;;;10.00;2.30;;;;;;;;;;4338238;32;317569;-71
2024/03/18 11:55:14;;;;;;;2.72;1.52;;;;;;;;;;4327568;32;318433;-73
2024/03/18 11:57:40;;;;;;;2.28;1.37;;;;;;;;;;4337173;32;355418;-72
2024/03/18 12:00:12;;;;;;;4.68;2.25;;;;;;;;;;4328347;32;317954;-74
2024/03/18 12:02:40;;;;;;;3.85;2.90;;;;;;;;;;4336889;32;328612;-72
2024/03/18 12:05:07;;;;;;;6.18;1.98;;;;;;;;;;4319376;32;317155;-72
2024/03/18 12:07:36;;;;;;;4.35;2.05;;;;;;;;;;4335435;32;317287;-73
2024/03/18 12:10:05;;;;;;;3.87;1.90;;;;;;;;;;4337295;32;317357;-73
2024/03/18 12:12:33;;;;;;;24.55;12.52;;;;;;;;;;4325264;32;416201;-74
2024/03/18 12:15:00;;;;;;;8.10;3.62;;;;;;;;;;4336526;32;319322;-73
2024/03/18 12:17:27;;;;;;;4.43;3.12;;;;;;;;;;4324877;32;317675;-71
2024/03/18 12:19:59;;;;;;;3.15;2.30;;;;;;;;;;4337939;32;317254;-71
2024/03/18 12:22:28;;;;;;;3.40;2.17;;;;;;;;;;4327803;32;317243;-71
2024/03/18 12:30:44;;;;;;;15.02;8.20;;;;;;;;;;4250765;33;389844;-71
2024/03/18 12:33:13;;;;;;;7.87;3.03;;;;;;;;;;4252635;33;318775;-71
2024/03/18 12:35:40;;;;;;;14.70;2.80;;;;;;;;;;4292166;32;316605;-70
2024/03/18 12:38:07;;;;;;;8.02;2.40;;;;;;;;;;4327451;32;318208;-70
2024/03/18 12:40:35;;;;;;;10.25;3.58;;;;;;;;;;4336224;32;317098;-72
2024/03/18 12:43:03;;;;;;;7.47;2.40;;;;;;;;;;4338179;32;318291;-72
2024/03/18 12:45:30;;;;;;;6.70;2.42;;;;;;;;;;4321072;32;416640;-72
2024/03/18 12:47:58;;;;;;;7.50;1.90;;;;;;;;;;4337955;32;317401;-69
2024/03/18 12:50:27;;;;;;;6.47;1.98;;;;;;;;;;4326586;32;356266;-70
2024/03/18 12:52:54;;;;;;;2.45;1.67;;;;;;;;;;4336351;32;317275;-73
2024/03/18 12:55:21;;;;;;;3.78;1.92;;;;;;;;;;4323476;32;340460;-70
2024/03/18 12:57:52;;;;;;;1.92;1.60;;;;;;;;;;4337382;32;316474;-71
2024/03/18 13:00:20;;;;;;;2.45;1.90;;;;;;;;;;4327485;32;317384;-73
2024/03/18 13:02:47;;;;;;;1.90;1.50;;;;;;;;;;4336963;32;316633;-70
2024/03/18 13:05:14;;;;;;;7.55;2.08;;;;;;;;;;4327498;32;317287;-74
2024/03/18 13:07:42;;;;;;;7.45;1.85;;;;;;;;;;4335558;32;317373;-72
2024/03/18 13:10:11;;;;;;;2.70;1.77;;;;;;;;;;4325986;32;317160;-71
2024/03/18 13:12:38;;;;;;;4.93;1.85;;;;;;;;;;4337729;32;317338;-71
2024/03/18 13:15:07;;;;;;;5.22;2.10;;;;;;;;;;4326398;32;360524;-70
2024/03/18 13:17:34;;;;;;;8.52;3.20;;;;;;;;;;4334996;32;316567;-70
2024/03/18 13:20:02;;;;;;;6.32;2.40;;;;;;;;;;4337478;32;317049;-72
2024/03/18 13:22:29;;;;;;;4.03;2.20;;;;;;;;;;4324591;33;416515;-71
2024/03/18 13:24:57;;;;;;;6.30;2.20;;;;;;;;;;4336337;33;317414;-72
2024/03/18 13:27:25;;;;;;;2.70;2.00;;;;;;;;;;4324270;33;317450;-71
2024/03/18 13:29:51;;;;;;;4.70;2.20;;;;;;;;;;4337126;33;317059;-70
2024/03/18 13:32:21;;;;;;;3.60;1.85;;;;;;;;;;4327146;33;317248;-69
2024/03/18 13:34:48;;;;;;;5.95;2.28;;;;;;;;;;4337269;33;317375;-71
2024/03/18 13:37:15;;;;;;;4.22;2.20;;;;;;;;;;4323803;32;317429;-71
2024/03/18 13:39:44;;;;;;;4.57;2.00;;;;;;;;;;4335913;33;317333;-71
2024/03/18 13:42:15;;;;;;;4.53;2.80;;;;;;;;;;4326517;33;317261;-71
2024/03/18 13:44:42;;;;;;;18.95;3.55;;;;;;;;;;4335855;33;317479;-70
2024/03/18 13:47:09;;;;;;;7.50;4.75;;;;;;;;;;4327060;33;317609;-72
2024/03/18 13:49:37;;;;;;;6.40;2.53;;;;;;;;;;4334173;33;317709;-74
2024/03/18 13:52:05;;;;;;;5.93;1.75;;;;;;;;;;4327544;33;317288;-73
2024/03/18 13:54:32;;;;;;;5.05;1.30;;;;;;;;;;4337232;33;317222;-71
2024/03/18 13:57:02;;;;;;;5.35;2.92;;;;;;;;;;4336729;33;317256;-74
2024/03/18 13:59:34;;;;;;;3.50;1.87;;;;;;;;;;4321993;33;416323;-72
2024/03/18 14:02:02;;;;;;;8.13;1.90;;;;;;;;;;4336023;33;317133;-70
2024/03/18 14:04:31;;;;;;;14.18;2.83;;;;;;;;;;4327735;32;317440;-70
2024/03/18 14:06:58;;;;;;;8.73;2.65;;;;;;;;;;4339984;32;318819;-70
2024/03/18 14:09:25;;;;;;;4.68;3.20;;;;;;;;;;4326243;32;317487;-71
2024/03/18 14:11:52;;;;;;;8.45;3.78;;;;;;;;;;4338662;32;317332;-71
2024/03/18 14:14:19;;;;;;;8.07;1.77;;;;;;;;;;4328542;32;317822;-70
2024/03/18 14:16:46;;;;;;;3.25;1.85;;;;;;;;;;4339685;32;317182;-72
2024/03/18 14:19:12;;;;;;;4.78;1.65;;;;;;;;;;4329761;32;317127;-71
2024/03/18 14:21:39;;;;;;;3.62;1.98;;;;;;;;;;4337545;32;317081;-72